This is the latest recevied weather packets stored in our database for station/object KC3DGM. If no packets are shown the sender has not sent any weather packets the latest 10 day(s).
| Time | Temp. | Humidity | Pressure | Rain* | Wind** | Luminosity | Snow |
|---|---|---|---|---|---|---|---|
| 1777675863 | 5° C | 93% | 984.5 hPa | 0 mm | - | 19 W/m² | - |
| 1777675561 | 5° C | 93% | 984.1 hPa | 0 mm | - | 49 W/m² | - |
| 1777675258 | 4.44° C | 93% | 984 hPa | 0 mm | - | 49 W/m² | - |
| 1777674954 | 4.44° C | 93% | 984.1 hPa | 0 mm | - | 34 W/m² | - |
| 1777674651 | 4.44° C | 93% | 984.1 hPa | 0 mm | - | 29 W/m² | - |
| 1777674358 | 4.44° C | 93% | 984 hPa | 0 mm | - | 28 W/m² | - |
| 1777674045 | 4.44° C | 93% | 984.3 hPa | 0 mm | - | 23 W/m² | - |
| 1777673740 | 4.44° C | 93% | 983.9 hPa | 0 mm | - | 28 W/m² | - |
| 1777673438 | 4.44° C | 94% | 983.8 hPa | 0 mm | - | 38 W/m² | - |
| 1777673136 | 5° C | 94% | 983.8 hPa | 0 mm | - | 32 W/m² | - |
| 1777672832 | 5° C | 94% | 983.8 hPa | 0 mm | - | 29 W/m² | - |
| 1777672528 | 5° C | 94% | 983.9 hPa | 0 mm | - | 28 W/m² | - |
| 1777672224 | 5° C | 94% | 983.8 hPa | 0 mm | - | 45 W/m² | - |
| 1777671920 | 5° C | 94% | 983.6 hPa | 0 mm | - | 49 W/m² | - |
| 1777671615 | 5° C | 94% | 983.7 hPa | 1.78 mm | - | 49 W/m² | - |
| 1777671313 | 5° C | 94% | 983.7 hPa | 1.78 mm | - | 42 W/m² | - |
| 1777671009 | 5.56° C | 94% | 983.6 hPa | 0 mm | - | 45 W/m² | - |
| 1777670705 | 5° C | 94% | 983.4 hPa | 0 mm | - | 42 W/m² | - |
| 1777670402 | 5° C | 94% | 983.5 hPa | 0 mm | - | 33 W/m² | - |
| 1777670099 | 5.56° C | 94% | 983.5 hPa | 0 mm | - | 23 W/m² | - |
| 1777669796 | 5.56° C | 94% | 983.3 hPa | 1.27 mm | - | 15 W/m² | - |
| 1777669493 | 5.56° C | 93% | 983.3 hPa | 0 mm | - | 23 W/m² | - |
| 1777669189 | 6.11° C | 93% | 983.4 hPa | 1.78 mm | - | 27 W/m² | - |
| 1777668886 | 6.67° C | 93% | 983.1 hPa | 1.78 mm | - | 38 W/m² | - |
| 1777668584 | 6.67° C | 92% | 983 hPa | 0 mm | - | 33 W/m² | - |
* Rain latest hour (hover to see other rain measurements)
** Current wind speed in m/s (hover to see current wind gust speed)